Time;durP1;ratioP1;P1;durP2;ratioP2;P2;SDS_P1;SDS_P2;PMS_P1;PMS_P2;Temp;Humidity;BMP_temperature;BMP_pressure;BME280_temperature;BME280_humidity;BME280_pressure;Samples;Min_cycle;Max_cycle;Signal;HPM_P1;HPM_P2
2022/10/30 00:00:13;;;;;;;7.78;3.53;;;;;;;10.29;62.33;94705.22;5062444;28;20020;-88
2022/10/30 00:02:38;;;;;;;5.82;3.33;;;;;;;10.31;62.35;94709.22;5063544;28;20017;-88
2022/10/30 00:05:05;;;;;;;12.82;4.03;;;;;;;10.33;62.22;94695.59;5063920;28;20040;-86
2022/10/30 00:07:30;;;;;;;5.38;3.08;;;;;;;10.30;62.10;94696.97;5063883;28;20067;-86
2022/10/30 00:09:56;;;;;;;6.90;3.60;;;;;;;10.27;62.01;94694.84;5064003;28;20024;-87
2022/10/30 00:12:21;;;;;;;5.30;2.55;;;;;;;10.25;62.30;94697.81;5063558;28;20023;-87
2022/10/30 00:14:47;;;;;;;6.00;3.28;;;;;;;10.23;62.63;94702.63;5063423;28;20020;-87
2022/10/30 00:17:12;;;;;;;8.40;3.63;;;;;;;10.21;62.87;94702.13;5063304;28;20020;-89
2022/10/30 00:19:38;;;;;;;6.65;3.25;;;;;;;10.20;63.01;94695.22;5063555;28;20242;-89
2022/10/30 00:22:03;;;;;;;6.80;3.10;;;;;;;10.21;62.52;94701.34;5063385;28;20096;-90
2022/10/30 00:24:29;;;;;;;5.47;3.35;;;;;;;10.13;62.65;94705.44;5063417;28;20399;-87
2022/10/30 00:26:54;;;;;;;5.40;3.28;;;;;;;10.12;62.94;94711.09;5063366;28;20093;-89
2022/10/30 00:29:22;;;;;;;7.90;3.45;;;;;;;10.09;63.00;94707.09;5063309;28;20047;-90
2022/10/30 00:31:48;;;;;;;4.40;2.60;;;;;;;10.00;63.35;94692.88;5062745;28;20109;-90
2022/10/30 00:34:14;;;;;;;6.45;3.08;;;;;;;9.96;63.78;94697.97;5063083;28;20037;-90
2022/10/30 00:36:40;;;;;;;8.88;3.35;;;;;;;9.97;64.04;94693.44;5063326;28;20280;-90
2022/10/30 00:39:14;;;;;;;10.70;3.00;;;;;;;9.92;64.13;94696.97;5063312;28;20020;-89
2022/10/30 00:41:40;;;;;;;9.00;2.72;;;;;;;9.95;64.01;94695.59;5063307;28;20025;-89
2022/10/30 00:44:34;;;;;;;6.57;2.83;;;;;;;9.98;63.69;94695.81;5062868;28;20021;-90
2022/10/30 00:47:04;;;;;;;6.65;3.47;;;;;;;9.92;63.58;94685.53;5063384;28;20032;-91
2022/10/30 00:49:36;;;;;;;3.97;2.92;;;;;;;9.87;63.71;94691.72;5063496;28;20040;-91
2022/10/30 00:52:04;;;;;;;5.43;3.30;;;;;;;9.83;64.07;94680.03;5063475;28;20017;-88
2022/10/30 00:54:31;;;;;;;6.88;4.18;;;;;;;9.83;64.18;94683.50;5063303;28;20263;-91
2022/10/30 00:56:59;;;;;;;13.38;4.15;;;;;;;9.84;64.32;94679.75;5063628;28;20021;-90
2022/10/30 00:59:31;;;;;;;8.65;4.43;;;;;;;9.86;64.38;94687.47;5063301;28;20083;-91
2022/10/30 01:01:59;;;;;;;8.70;4.53;;;;;;;9.86;64.52;94679.47;5063428;28;20044;-89
2022/10/30 01:04:25;;;;;;;9.82;4.72;;;;;;;9.83;64.88;94682.69;5063807;28;20031;-92
2022/10/30 01:06:52;;;;;;;11.40;4.70;;;;;;;9.81;65.27;94680.34;5063257;28;20021;-88
2022/10/30 01:09:21;;;;;;;10.10;6.43;;;;;;;9.79;65.64;94676.38;5063145;28;20025;-89
2022/10/30 01:11:47;;;;;;;16.05;7.57;;;;;;;9.73;66.23;94678.31;5063179;28;20059;-88
2022/10/30 01:14:17;;;;;;;13.07;7.47;;;;;;;9.72;66.69;94682.06;5062994;28;20080;-91
2022/10/30 01:17:26;;;;;;;14.85;6.45;;;;;;;9.76;66.56;94666.31;5063107;28;20088;-87
2022/10/30 01:20:12;;;;;;;11.63;5.93;;;;;;;9.72;66.45;94662.63;5020955;28;20026;-87
2022/10/30 01:22:56;;;;;;;11.30;5.97;;;;;;;9.67;66.46;94652.03;5020790;28;20386;-85
2022/10/30 01:25:37;;;;;;;15.38;7.03;;;;;;;9.66;66.59;94659.25;5050741;28;20037;-87
2022/10/30 01:28:44;;;;;;;13.63;6.72;;;;;;;9.67;66.35;94650.19;5062439;28;20092;-88
2022/10/30 01:31:32;;;;;;;10.90;6.32;;;;;;;9.63;66.46;94649.97;5062458;28;20078;-86
2022/10/30 01:34:22;;;;;;;10.52;5.65;;;;;;;9.60;66.85;94645.22;5060982;28;20085;-86
2022/10/30 01:37:09;;;;;;;11.35;6.07;;;;;;;9.59;67.17;94640.97;5062222;28;20208;-86
2022/10/30 01:39:38;;;;;;;13.13;6.97;;;;;;;9.61;67.12;94648.69;5062134;28;20070;-85
2022/10/30 01:42:46;;;;;;;15.60;6.57;;;;;;;9.60;67.28;94652.41;5062233;28;20025;-85
2022/10/30 01:45:20;;;;;;;13.77;7.15;;;;;;;9.57;67.44;94650.34;5066226;28;20025;-86
2022/10/30 01:48:13;;;;;;;13.88;7.35;;;;;;;9.54;67.59;94648.25;5065916;28;20021;-88
2022/10/30 01:50:54;;;;;;;14.77;6.90;;;;;;;9.51;67.72;94649.59;5066100;28;20025;-88
2022/10/30 01:53:42;;;;;;;14.27;5.95;;;;;;;9.48;67.86;94647.50;5064865;28;20029;-88
2022/10/30 01:56:38;;;;;;;9.95;5.80;;;;;;;9.43;67.75;94645.72;5065882;28;20021;-85
2022/10/30 01:59:33;;;;;;;12.55;6.18;;;;;;;9.44;67.46;94651.81;5065843;28;20031;-88
2022/10/30 02:01:58;;;;;;;11.07;6.10;;;;;;;9.44;67.29;94643.84;5050061;28;20033;-88
2022/10/30 02:04:24;;;;;;;12.40;7.07;;;;;;;9.42;67.09;94641.47;5065757;28;20035;-88
2022/10/30 02:06:50;;;;;;;13.95;6.38;;;;;;;9.41;66.41;94645.22;5065717;28;20021;-87
2022/10/30 02:09:16;;;;;;;11.75;6.57;;;;;;;9.38;66.13;94637.81;5065754;28;20051;-88
2022/10/30 02:11:44;;;;;;;9.85;6.68;;;;;;;9.33;66.27;94640.53;5065550;28;20260;-90
2022/10/30 02:14:10;;;;;;;10.13;5.88;;;;;;;9.32;66.32;94638.13;5066579;28;20100;-91
2022/10/30 02:16:41;;;;;;;15.05;5.70;;;;;;;9.35;67.23;94635.72;5066484;28;20021;-91
2022/10/30 02:19:06;;;;;;;12.77;5.97;;;;;;;9.29;67.92;94630.75;5066385;28;20021;-91
2022/10/30 02:21:32;;;;;;;12.13;5.70;;;;;;;9.23;68.20;94633.44;5066381;28;20020;-91
2022/10/30 02:23:58;;;;;;;11.85;6.45;;;;;;;9.23;68.27;94632.66;5066380;28;20367;-91
2022/10/30 02:26:23;;;;;;;11.73;6.38;;;;;;;9.26;68.59;94637.44;5066211;28;20250;-91
2022/10/30 02:28:49;;;;;;;19.45;8.00;;;;;;;9.24;69.12;94639.59;5066278;28;20307;-91
2022/10/30 02:31:14;;;;;;;12.88;8.02;;;;;;;9.22;69.34;94631.09;5065946;28;20016;-89
2022/10/30 02:33:46;;;;;;;12.30;6.55;;;;;;;9.20;69.46;94628.72;5065295;28;20049;-88
2022/10/30 02:36:14;;;;;;;13.93;6.95;;;;;;;9.17;69.37;94625.81;5064361;28;20021;-89
2022/10/30 02:38:40;;;;;;;11.02;6.55;;;;;;;9.14;69.21;94631.69;5065409;28;20025;-89
2022/10/30 02:41:05;;;;;;;11.05;6.78;;;;;;;9.14;69.03;94637.03;5065360;28;20378;-87
2022/10/30 02:43:31;;;;;;;9.43;5.85;;;;;;;9.15;68.65;94626.09;5065020;28;20326;-89
2022/10/30 02:45:56;;;;;;;10.50;6.32;;;;;;;9.12;68.69;94626.69;5065150;28;20033;-89
2022/10/30 02:48:22;;;;;;;9.32;6.35;;;;;;;9.08;68.76;94630.19;5065374;28;20037;-90
2022/10/30 02:50:47;;;;;;;17.45;7.22;;;;;;;9.09;68.85;94623.81;5064283;28;20029;-89
2022/10/30 02:53:12;;;;;;;13.25;6.70;;;;;;;9.08;69.02;94631.00;5065090;28;20270;-89
2022/10/30 02:55:38;;;;;;;14.02;6.05;;;;;;;9.08;68.83;94636.31;5064608;28;20342;-91
2022/10/30 02:58:04;;;;;;;12.48;6.20;;;;;;;9.07;68.72;94628.59;5065842;28;20151;-91
2022/10/30 03:00:46;;;;;;;8.82;5.15;;;;;;;9.04;68.44;94638.75;5065784;28;20021;-91
2022/10/30 03:03:11;;;;;;;8.82;5.72;;;;;;;9.03;68.36;94628.38;5062065;28;20048;-91
2022/10/30 03:05:36;;;;;;;10.27;5.40;;;;;;;9.02;68.45;94646.22;5065204;28;20021;-92
2022/10/30 03:08:02;;;;;;;14.60;7.40;;;;;;;9.02;68.43;94637.44;5064187;28;20100;-91
2022/10/30 03:10:28;;;;;;;13.25;6.60;;;;;;;9.01;69.11;94639.28;5065466;28;20021;-92
2022/10/30 03:12:53;;;;;;;10.25;6.95;;;;;;;8.97;69.04;94643.59;5065017;28;20021;-91
2022/10/30 03:15:19;;;;;;;12.40;7.28;;;;;;;8.92;69.68;94656.97;5064138;28;20013;-88
2022/10/30 03:17:44;;;;;;;18.17;7.70;;;;;;;8.91;70.16;94658.03;5064785;28;20029;-88
2022/10/30 03:20:10;;;;;;;13.07;9.25;;;;;;;8.94;71.62;94657.47;5064890;28;20029;-87
2022/10/30 03:22:35;;;;;;;12.40;7.50;;;;;;;8.95;71.81;94652.94;5064696;28;20029;-88
2022/10/30 03:25:01;;;;;;;13.77;7.32;;;;;;;8.97;71.63;94661.41;5064556;28;20028;-88
2022/10/30 03:27:27;;;;;;;10.77;6.60;;;;;;;8.97;71.58;94659.53;5064848;28;20088;-88
2022/10/30 03:29:58;;;;;;;12.65;7.30;;;;;;;8.94;71.58;94657.47;5064611;28;20319;-88
2022/10/30 03:32:23;;;;;;;19.83;8.98;;;;;;;8.93;71.62;94663.06;5064547;28;20047;-88
2022/10/30 03:34:49;;;;;;;14.75;9.35;;;;;;;8.92;71.82;94654.31;5064374;28;20298;-89
2022/10/30 03:37:14;;;;;;;15.20;9.13;;;;;;;8.89;72.01;94646.88;5064451;28;20108;-89
2022/10/30 03:39:40;;;;;;;17.33;9.77;;;;;;;8.88;72.06;94645.31;5064720;28;20021;-89
2022/10/30 03:42:05;;;;;;;19.52;9.48;;;;;;;8.86;72.47;94628.84;5064450;28;20238;-87
2022/10/30 03:44:31;;;;;;;23.00;10.63;;;;;;;8.90;72.82;94629.88;5063667;28;20058;-89
2022/10/30 03:46:57;;;;;;;19.35;10.20;;;;;;;8.92;73.11;94632.25;5064157;28;20355;-87
2022/10/30 03:49:22;;;;;;;13.05;8.63;;;;;;;8.93;73.05;94639.91;5063627;28;20025;-86
2022/10/30 03:51:48;;;;;;;12.77;8.40;;;;;;;8.95;72.40;94642.31;5063432;28;20029;-87
2022/10/30 03:54:13;;;;;;;15.35;8.02;;;;;;;8.91;72.33;94642.06;5063664;28;20045;-86
2022/10/30 03:56:39;;;;;;;13.43;8.73;;;;;;;8.84;73.25;94646.94;5063474;28;20330;-86
2022/10/30 03:59:04;;;;;;;13.40;8.55;;;;;;;8.80;73.90;94651.25;5063605;28;20020;-87
2022/10/30 04:01:30;;;;;;;13.95;8.07;;;;;;;8.75;74.71;94649.44;5063666;28;20024;-87
2022/10/30 04:03:55;;;;;;;15.73;7.60;;;;;;;8.71;74.96;94645.75;5063845;28;20024;-87
2022/10/30 04:06:21;;;;;;;16.77;9.88;;;;;;;8.73;76.09;94634.81;5062080;28;20037;-86
2022/10/30 04:08:46;;;;;;;16.23;8.93;;;;;;;8.74;75.55;94623.91;5063458;28;20333;-87
2022/10/30 04:11:12;;;;;;;11.63;7.97;;;;;;;8.74;75.17;94631.09;5063464;28;20021;-89
2022/10/30 04:13:38;;;;;;;10.65;8.05;;;;;;;8.79;74.90;94623.06;5063859;28;20226;-88
2022/10/30 04:16:05;;;;;;;16.08;8.77;;;;;;;8.80;74.52;94620.13;5063566;28;20262;-89
2022/10/30 04:18:31;;;;;;;9.60;6.38;;;;;;;8.83;74.02;94627.56;5063862;28;20029;-89
2022/10/30 04:20:58;;;;;;;7.47;4.82;;;;;;;8.87;72.68;94625.09;5063604;28;20028;-89
2022/10/30 04:23:24;;;;;;;7.75;4.60;;;;;;;8.88;71.81;94625.91;5063726;28;20044;-88
2022/10/30 04:25:50;;;;;;;8.05;4.68;;;;;;;8.88;71.07;94626.69;5063157;28;20158;-87
2022/10/30 04:28:16;;;;;;;14.05;6.55;;;;;;;8.90;71.19;94635.19;5063522;28;20021;-88
2022/10/30 04:30:41;;;;;;;9.25;6.07;;;;;;;8.91;72.22;94635.97;5063265;28;20311;-88
2022/10/30 04:33:10;;;;;;;18.45;6.80;;;;;;;8.92;72.60;94629.59;5063079;28;20056;-88
2022/10/30 04:35:36;;;;;;;10.52;7.50;;;;;;;8.91;73.51;94625.34;5063298;28;20338;-89
2022/10/30 04:38:06;;;;;;;10.82;7.32;;;;;;;8.92;73.96;94638.34;5063059;28;20311;-88
2022/10/30 04:40:34;;;;;;;16.55;8.50;;;;;;;8.93;73.76;94628.50;5063204;28;20040;-88
2022/10/30 04:43:01;;;;;;;11.75;7.00;;;;;;;8.92;73.21;94627.72;5063228;28;20021;-88
2022/10/30 04:45:27;;;;;;;14.55;6.78;;;;;;;8.92;73.14;94635.69;5063062;28;20090;-88
2022/10/30 04:47:59;;;;;;;8.05;5.57;;;;;;;8.92;72.71;94632.25;5062881;28;20025;-88
2022/10/30 04:50:24;;;;;;;8.90;6.18;;;;;;;8.91;72.34;94642.06;5061931;28;20024;-89
2022/10/30 04:52:58;;;;;;;9.32;5.80;;;;;;;8.84;72.14;94642.41;5063202;28;20028;-88
2022/10/30 04:55:23;;;;;;;10.10;4.95;;;;;;;8.80;72.05;94645.94;5062900;28;20037;-89
2022/10/30 04:57:48;;;;;;;11.43;5.20;;;;;;;8.74;71.57;94647.06;5063265;28;20354;-89
2022/10/30 05:00:14;;;;;;;8.75;5.63;;;;;;;8.71;71.55;94643.09;5063210;28;20021;-89
2022/10/30 05:02:39;;;;;;;11.20;7.03;;;;;;;8.63;72.43;94644.50;5063066;28;20028;-90
2022/10/30 05:05:05;;;;;;;14.45;8.88;;;;;;;8.61;73.35;94648.53;5062895;28;20031;-90
2022/10/30 05:07:31;;;;;;;13.88;7.20;;;;;;;8.60;74.17;94653.03;5063277;28;20272;-89
2022/10/30 05:09:56;;;;;;;14.02;7.97;;;;;;;8.57;73.92;94648.28;5063436;28;20078;-89
2022/10/30 05:12:22;;;;;;;13.15;6.07;;;;;;;8.59;73.45;94653.31;5063081;28;20044;-89
2022/10/30 05:14:47;;;;;;;12.80;7.50;;;;;;;8.60;73.52;94641.59;5062926;28;20067;-89
2022/10/30 05:17:13;;;;;;;12.68;7.10;;;;;;;8.59;73.13;94643.47;5062668;28;20093;-88
2022/10/30 05:19:38;;;;;;;10.13;6.32;;;;;;;8.58;73.10;94651.72;5066882;28;20030;-89
2022/10/30 05:22:04;;;;;;;13.23;6.88;;;;;;;8.60;72.76;94661.00;5066962;28;20039;-88
2022/10/30 05:24:29;;;;;;;12.25;6.63;;;;;;;8.61;72.49;94657.28;5066931;28;20272;-88
2022/10/30 05:26:55;;;;;;;10.30;5.65;;;;;;;8.62;71.95;94656.19;5067275;28;20040;-90
2022/10/30 05:29:20;;;;;;;10.65;6.18;;;;;;;8.60;71.94;94657.53;5067537;28;20029;-89
2022/10/30 05:31:46;;;;;;;11.98;6.43;;;;;;;8.63;71.90;94652.47;5067242;28;20271;-89
2022/10/30 05:34:11;;;;;;;15.50;8.60;;;;;;;8.64;72.02;94651.38;5067439;28;20056;-90
2022/10/30 05:36:37;;;;;;;16.15;8.43;;;;;;;8.68;72.86;94653.50;5067169;28;20311;-89
2022/10/30 05:39:02;;;;;;;15.02;9.90;;;;;;;8.73;73.44;94662.22;5066774;28;20017;-89
2022/10/30 05:41:28;;;;;;;16.33;8.75;;;;;;;8.76;73.83;94661.63;5066944;28;20025;-89
2022/10/30 05:43:56;;;;;;;16.75;8.80;;;;;;;8.83;73.78;94654.13;5066775;28;20195;-89
2022/10/30 05:46:22;;;;;;;25.35;10.00;;;;;;;8.90;73.72;94660.97;5066684;28;20067;-89
2022/10/30 05:48:50;;;;;;;15.80;9.35;;;;;;;8.92;73.60;94659.63;5066777;28;20091;-89
2022/10/30 05:51:16;;;;;;;22.13;10.70;;;;;;;8.97;73.52;94662.22;5066864;28;20361;-89
2022/10/30 05:53:41;;;;;;;17.13;8.98;;;;;;;9.00;73.57;94656.34;5065691;28;20029;-90
2022/10/30 05:56:07;;;;;;;23.65;9.90;;;;;;;9.09;73.65;94653.84;5066525;28;20020;-90
2022/10/30 05:58:32;;;;;;;22.88;9.20;;;;;;;9.18;73.32;94656.66;5066588;28;20028;-90
2022/10/30 06:00:58;;;;;;;16.23;8.40;;;;;;;9.26;72.86;94645.41;5066629;28;20043;-89
2022/10/30 06:03:42;;;;;;;;;;;;;;;;;;;;;
2022/10/30 06:06:08;;;;;;;16.85;8.65;;;;;;;9.47;72.17;94653.13;5064283;28;20068;-89
2022/10/30 06:08:34;;;;;;;16.95;8.80;;;;;;;9.56;71.94;94651.41;5065849;28;20189;-89
2022/10/30 06:11:02;;;;;;;18.90;8.50;;;;;;;9.61;71.66;94644.16;5066014;28;20090;-90
2022/10/30 06:13:27;;;;;;;29.52;9.77;;;;;;;9.68;71.04;94643.00;5066054;28;20303;-89
2022/10/30 06:15:55;;;;;;;34.95;11.20;;;;;;;9.76;70.32;94655.66;5065921;28;20017;-88
2022/10/30 06:18:21;;;;;;;20.05;10.05;;;;;;;9.76;70.51;94656.44;5065949;28;20039;-88
2022/10/30 06:20:46;;;;;;;19.73;11.98;;;;;;;9.73;70.21;94662.34;5066228;28;20025;-90
2022/10/30 06:23:12;;;;;;;31.08;13.60;;;;;;;9.67;70.18;94658.19;5066366;28;20088;-90
2022/10/30 06:25:37;;;;;;;29.50;14.18;;;;;;;9.65;70.36;94657.69;5065805;28;20231;-89
2022/10/30 06:28:03;;;;;;;29.67;14.77;;;;;;;9.69;70.57;94653.38;5066140;28;20039;-89
2022/10/30 06:30:29;;;;;;;22.48;13.00;;;;;;;9.72;70.48;94649.31;5065067;28;20377;-90
2022/10/30 06:33:01;;;;;;;21.13;12.88;;;;;;;9.77;70.29;94652.72;5065191;28;20044;-88
2022/10/30 06:35:36;;;;;;;26.38;13.10;;;;;;;9.87;70.46;94661.63;5065722;28;20028;-87
2022/10/30 06:38:02;;;;;;;25.23;12.90;;;;;;;9.95;69.94;94660.97;5065789;28;20040;-91
2022/10/30 06:40:28;;;;;;;23.52;12.80;;;;;;;9.99;69.60;94659.31;5065791;28;20025;-90
2022/10/30 06:42:54;;;;;;;24.20;14.40;;;;;;;10.06;69.67;94654.44;5064421;28;20100;-91
2022/10/30 06:45:21;;;;;;;27.60;13.70;;;;;;;10.09;69.62;94656.50;5065956;28;20348;-90
2022/10/30 06:47:47;;;;;;;27.92;14.00;;;;;;;10.17;69.63;94661.16;5064495;28;20107;-83
2022/10/30 06:50:16;;;;;;;28.70;17.52;;;;;;;10.22;69.90;94658.44;5065636;28;20044;-85
2022/10/30 06:52:42;;;;;;;39.13;20.65;;;;;;;10.21;69.99;94667.50;5064764;28;20103;-88
2022/10/30 06:55:09;;;;;;;38.00;22.60;;;;;;;10.20;70.62;94663.25;5064834;28;20048;-87
2022/10/30 06:57:34;;;;;;;40.38;25.08;;;;;;;10.22;70.70;94677.09;5064844;28;20098;-86
2022/10/30 07:00:02;;;;;;;50.38;26.33;;;;;;;10.28;70.49;94677.00;5063784;28;20024;-88
2022/10/30 07:02:28;;;;;;;35.92;23.83;;;;;;;10.29;70.69;94681.25;5064835;28;20067;-87
2022/10/30 07:04:53;;;;;;;39.45;21.25;;;;;;;10.30;70.69;94672.19;5063465;28;20029;-87
2022/10/30 07:07:19;;;;;;;28.75;14.93;;;;;;;10.32;70.67;94668.19;5064630;28;20028;-87
2022/10/30 07:09:47;;;;;;;26.85;14.65;;;;;;;10.35;70.86;94661.47;5064325;28;20367;-87
2022/10/30 07:12:15;;;;;;;22.23;14.05;;;;;;;10.39;70.92;94665.91;5064666;28;20041;-85
2022/10/30 07:14:43;;;;;;;33.75;16.13;;;;;;;10.44;70.88;94665.03;5064411;28;20066;-86
2022/10/30 07:17:09;;;;;;;21.55;12.90;;;;;;;10.54;70.53;94675.53;5063227;28;20025;-87
2022/10/30 07:19:34;;;;;;;21.10;13.63;;;;;;;10.67;69.85;94662.53;5064264;28;20092;-82
2022/10/30 07:22:00;;;;;;;20.17;12.00;;;;;;;10.76;69.57;94658.09;5064553;28;20017;-83
2022/10/30 07:24:26;;;;;;;16.38;10.85;;;;;;;10.79;69.47;94662.84;5064251;28;20048;-82
2022/10/30 07:26:51;;;;;;;26.33;12.20;;;;;;;10.86;69.21;94662.47;5064099;28;20024;-77
2022/10/30 07:29:17;;;;;;;21.75;12.82;;;;;;;10.94;69.25;94657.22;5063289;28;20017;-77
2022/10/30 07:31:45;;;;;;;20.02;13.30;;;;;;;11.02;69.33;94656.53;5064214;28;20043;-78
2022/10/30 07:34:11;;;;;;;22.98;13.43;;;;;;;11.12;68.94;94646.78;5064052;28;20208;-78
2022/10/30 07:36:36;;;;;;;26.75;13.35;;;;;;;11.22;68.74;94649.25;5063799;28;20071;-78
2022/10/30 07:39:02;;;;;;;30.25;13.50;;;;;;;11.34;68.52;94652.19;5064143;28;20016;-79
2022/10/30 07:41:27;;;;;;;25.92;13.38;;;;;;;11.46;68.04;94659.72;5063665;28;20021;-79
2022/10/30 07:43:52;;;;;;;19.15;12.35;;;;;;;11.55;67.36;94651.78;5063894;28;20013;-78
2022/10/30 07:46:18;;;;;;;24.20;13.05;;;;;;;11.57;67.36;94658.38;5063865;28;20035;-78
2022/10/30 07:48:44;;;;;;;21.92;13.27;;;;;;;11.70;66.80;94656.78;5064070;28;20024;-78
2022/10/30 07:51:09;;;;;;;24.42;13.73;;;;;;;11.76;66.44;94660.91;5064061;28;20021;-77
2022/10/30 07:53:34;;;;;;;21.48;12.70;;;;;;;11.83;66.65;94655.97;5064050;28;20078;-78
2022/10/30 07:56:00;;;;;;;19.60;13.00;;;;;;;11.93;66.70;94646.19;5063788;28;20227;-78
2022/10/30 07:58:25;;;;;;;33.60;12.98;;;;;;;12.02;66.59;94636.34;5064003;28;20293;-77
2022/10/30 08:00:51;;;;;;;21.60;13.13;;;;;;;12.15;66.39;94637.38;5063668;28;20219;-78
2022/10/30 08:03:16;;;;;;;30.25;13.00;;;;;;;12.26;65.95;94630.72;5063456;28;20335;-78
2022/10/30 08:05:42;;;;;;;25.42;14.40;;;;;;;12.40;65.92;94625.31;5063383;28;20025;-78
2022/10/30 08:08:08;;;;;;;21.48;12.30;;;;;;;12.54;65.56;94626.00;5063735;28;20095;-78
2022/10/30 08:10:34;;;;;;;19.60;12.70;;;;;;;12.67;65.07;94618.22;5063553;28;20276;-78
2022/10/30 08:12:59;;;;;;;29.02;12.85;;;;;;;12.77;64.76;94618.72;5063580;28;20033;-78
2022/10/30 08:15:25;;;;;;;17.83;11.52;;;;;;;12.89;64.45;94617.38;5063362;28;20265;-78
2022/10/30 08:17:51;;;;;;;20.02;12.25;;;;;;;13.03;64.18;94618.06;5063509;28;20111;-78
2022/10/30 08:20:19;;;;;;;22.95;11.98;;;;;;;13.17;63.99;94612.59;5063122;28;20021;-77
2022/10/30 08:22:53;;;;;;;24.00;10.25;;;;;;;13.28;63.74;94615.75;5063010;28;20016;-77
2022/10/30 08:25:20;;;;;;;21.45;11.43;;;;;;;13.38;62.60;94616.28;5062897;28;20025;-75
2022/10/30 08:27:57;;;;;;;21.70;11.07;;;;;;;13.48;62.35;94617.09;5062600;28;20263;-75
2022/10/30 08:30:25;;;;;;;16.08;10.02;;;;;;;13.53;62.34;94609.69;5062954;28;20028;-74
2022/10/30 08:32:50;;;;;;;23.70;12.52;;;;;;;13.59;61.75;94621.03;5061499;28;20396;-74
2022/10/30 08:35:16;;;;;;;18.25;11.43;;;;;;;13.65;61.18;94611.75;5062875;28;20028;-75
2022/10/30 08:37:42;;;;;;;27.00;10.88;;;;;;;13.72;61.37;94617.44;5062820;28;20016;-75
2022/10/30 08:40:09;;;;;;;23.50;10.60;;;;;;;13.74;60.58;94609.88;5062806;28;20021;-74
2022/10/30 08:42:35;;;;;;;18.50;10.88;;;;;;;13.74;60.41;94617.91;5062870;28;20036;-75
2022/10/30 08:45:00;;;;;;;31.38;12.77;;;;;;;13.86;60.45;94614.63;5062799;28;20073;-73
2022/10/30 08:47:26;;;;;;;19.38;11.05;;;;;;;13.97;60.22;94615.09;5062817;28;20036;-76
2022/10/30 08:49:51;;;;;;;19.88;11.60;;;;;;;14.03;60.07;94613.84;5062399;28;20201;-76
2022/10/30 08:52:17;;;;;;;16.80;11.63;;;;;;;14.15;59.10;94619.34;5061086;28;20285;-75
2022/10/30 08:54:42;;;;;;;19.38;12.63;;;;;;;14.21;59.08;94612.72;5062512;28;20262;-76
2022/10/30 08:57:08;;;;;;;21.83;12.57;;;;;;;14.31;59.21;94613.47;5062493;28;20027;-76
2022/10/30 08:59:33;;;;;;;18.75;11.82;;;;;;;14.40;58.90;94611.59;5062723;28;20036;-76
2022/10/30 09:01:58;;;;;;;19.75;12.20;;;;;;;14.52;58.82;94603.66;5062512;28;20223;-75
2022/10/30 09:04:24;;;;;;;20.92;10.27;;;;;;;14.64;58.51;94595.00;5062268;28;20029;-75
2022/10/30 09:06:49;;;;;;;24.10;12.02;;;;;;;14.75;57.24;94592.75;5062274;28;20092;-76
2022/10/30 09:09:15;;;;;;;21.40;11.65;;;;;;;14.86;56.83;94588.59;5062372;28;20204;-76
2022/10/30 09:11:40;;;;;;;20.85;11.93;;;;;;;14.93;56.57;94590.78;5061053;28;20036;-77
2022/10/30 09:14:05;;;;;;;23.73;11.18;;;;;;;15.01;56.52;94592.63;5062230;28;20020;-76
2022/10/30 09:16:31;;;;;;;20.48;11.68;;;;;;;15.08;55.69;94584.84;5060841;28;20044;-75
2022/10/30 09:18:56;;;;;;;19.65;10.95;;;;;;;15.04;56.21;94586.59;5062481;28;20218;-77
2022/10/30 09:21:22;;;;;;;24.13;11.18;;;;;;;15.13;55.67;94584.69;5062091;28;20040;-77
2022/10/30 09:23:47;;;;;;;20.17;10.55;;;;;;;15.21;55.38;94585.75;5062207;28;20369;-77
2022/10/30 09:26:13;;;;;;;21.63;10.80;;;;;;;15.09;55.70;94591.81;5061975;28;20032;-77
2022/10/30 09:28:38;;;;;;;19.20;12.15;;;;;;;15.21;55.66;94591.13;5062086;28;20271;-77
2022/10/30 09:31:04;;;;;;;22.77;12.30;;;;;;;15.31;55.48;94593.44;5062156;28;20205;-77
2022/10/30 09:33:29;;;;;;;23.10;12.05;;;;;;;15.40;55.06;94596.06;5062160;28;20112;-77
2022/10/30 09:35:55;;;;;;;23.85;13.00;;;;;;;15.43;54.95;94587.38;5062121;28;20088;-78
2022/10/30 09:38:21;;;;;;;23.30;13.13;;;;;;;15.42;54.91;94591.94;5061708;28;20362;-77
2022/10/30 09:41:32;;;;;;;24.02;12.88;;;;;;;15.55;55.13;94579.38;5062073;28;20025;-77
2022/10/30 09:44:30;;;;;;;23.73;12.10;;;;;;;15.63;54.54;94580.41;5062168;28;20345;-78
2022/10/30 09:47:07;;;;;;;20.42;12.43;;;;;;;15.71;53.61;94579.56;5062104;28;20039;-77
2022/10/30 09:49:42;;;;;;;32.50;12.38;;;;;;;15.74;53.82;94568.22;5061879;28;20262;-77
2022/10/30 09:52:13;;;;;;;24.73;12.45;;;;;;;15.87;53.71;94561.00;5061510;28;20032;-82
2022/10/30 09:54:55;;;;;;;17.95;11.85;;;;;;;15.98;53.27;94547.94;5061669;28;20278;-84
2022/10/30 09:57:59;;;;;;;26.88;13.95;;;;;;;16.14;52.64;94548.09;5061601;28;20066;-86
2022/10/30 10:00:42;;;;;;;32.15;12.60;;;;;;;16.30;51.97;94548.25;5050582;28;20028;-86
2022/10/30 10:03:16;;;;;;;;;;;;;;;16.34;50.80;94546.47;5062198;28;20052;-86
2022/10/30 10:05:52;;;;;;;21.63;12.38;;;;;;;16.36;51.58;94536.19;5065191;28;19909;-86
2022/10/30 10:08:34;;;;;;;19.38;12.13;;;;;;;16.47;52.11;94523.88;5065396;28;20028;-86
2022/10/30 10:11:05;;;;;;;21.65;10.88;;;;;;;16.65;50.85;94538.72;5065540;28;20021;-84
2022/10/30 10:13:44;;;;;;;20.20;11.02;;;;;;;16.71;50.32;94525.81;5065504;28;20051;-79
2022/10/30 10:16:10;;;;;;;21.42;10.88;;;;;;;16.84;50.37;94518.56;5065458;28;20021;-81
2022/10/30 10:18:44;;;;;;;16.70;9.98;;;;;;;16.99;50.58;94514.41;5064887;28;20389;-81
2022/10/30 10:21:27;;;;;;;18.95;8.50;;;;;;;17.11;49.36;94513.63;5065525;28;20032;-81
2022/10/30 10:23:58;;;;;;;13.75;7.38;;;;;;;17.29;48.90;94506.84;5065063;28;20078;-81
2022/10/30 10:26:46;;;;;;;22.17;7.30;;;;;;;17.44;47.06;94506.16;5065200;28;20193;-81
2022/10/30 10:29:19;;;;;;;13.80;7.03;;;;;;;17.54;47.54;94498.72;5065244;28;20045;-81
2022/10/30 10:32:12;;;;;;;17.00;6.15;;;;;;;17.68;46.26;94495.63;5065029;28;20031;-83
2022/10/30 10:35:03;;;;;;;16.02;7.75;;;;;;;17.80;46.28;94487.50;5065043;28;20072;-82
2022/10/30 10:37:57;;;;;;;11.32;5.70;;;;;;;17.95;45.40;94489.50;5065313;28;20031;-82
2022/10/30 10:40:34;;;;;;;17.20;5.85;;;;;;;18.01;45.16;94488.13;5064776;28;20039;-82
2022/10/30 10:43:54;;;;;;;12.48;6.25;;;;;;;18.17;45.21;94485.44;5063101;28;20025;-81
2022/10/30 10:46:34;;;;;;;8.20;4.70;;;;;;;18.31;44.28;94489.66;5036833;28;20036;-82
2022/10/30 10:49:11;;;;;;;12.52;4.20;;;;;;;18.27;43.01;94473.38;5064826;28;20036;-82
2022/10/30 10:51:42;;;;;;;7.05;4.15;;;;;;;18.34;43.60;94475.44;5064595;28;20025;-82
2022/10/30 10:54:15;;;;;;;13.45;3.97;;;;;;;18.45;44.24;94476.53;5062962;28;20024;-82
2022/10/30 10:56:45;;;;;;;10.20;4.40;;;;;;;18.52;43.43;94479.41;5062935;28;20036;-82
2022/10/30 10:59:43;;;;;;;12.15;4.40;;;;;;;18.64;43.71;94471.22;5062701;28;20092;-82
2022/10/30 11:02:23;;;;;;;10.10;4.10;;;;;;;18.75;43.13;94468.00;5062801;28;20032;-80
2022/10/30 11:04:52;;;;;;;11.80;5.72;;;;;;;18.82;43.28;94463.53;5062711;28;20272;-82
2022/10/30 11:07:22;;;;;;;9.80;3.67;;;;;;;18.98;42.92;94457.34;5062918;28;20047;-82
2022/10/30 11:09:52;;;;;;;8.02;3.53;;;;;;;19.10;42.33;94462.63;5064271;28;20037;-83
2022/10/30 11:12:28;;;;;;;8.00;4.03;;;;;;;19.20;41.69;94450.50;5064534;28;20218;-82
2022/10/30 11:14:53;;;;;;;8.13;3.67;;;;;;;19.27;42.50;94447.16;5064300;28;20029;-83
2022/10/30 11:17:40;;;;;;;11.60;3.67;;;;;;;19.42;41.55;94446.34;5063724;28;20062;-83
2022/10/30 11:20:19;;;;;;;7.25;3.22;;;;;;;19.52;41.27;94442.25;5062976;28;20031;-82
2022/10/30 11:22:50;;;;;;;7.93;3.55;;;;;;;19.63;40.59;94427.81;5064223;28;20051;-82
2022/10/30 11:25:24;;;;;;;7.10;2.83;;;;;;;19.76;40.88;94425.81;5062669;28;20031;-82
2022/10/30 11:28:02;;;;;;;11.00;3.28;;;;;;;19.92;40.48;94433.03;5063716;28;20222;-83
2022/10/30 11:30:28;;;;;;;10.00;3.40;;;;;;;20.02;39.85;94422.41;5064048;28;20100;-82
2022/10/30 11:32:54;;;;;;;6.72;3.50;;;;;;;20.16;40.08;94421.88;5063648;28;20052;-82
2022/10/30 11:35:21;;;;;;;6.28;3.10;;;;;;;20.30;39.22;94412.44;5063854;28;20067;-82
2022/10/30 11:38:17;;;;;;;10.43;3.50;;;;;;;20.41;38.32;94416.09;5063871;28;20021;-82
2022/10/30 11:40:50;;;;;;;4.80;2.70;;;;;;;20.49;37.36;94420.47;5063712;28;20054;-82